sensor_id;sensor_type;location;lat;lon;timestamp;pressure;altitude;pressure_sealevel;temperature;humidity
80410;BME280;69746;45.596;10.154;2023-09-08T00:01:55;100013.91;;;26.13;42.54
80410;BME280;69746;45.596;10.154;2023-09-08T00:04:21;100012.75;;;26.14;42.54
80410;BME280;69746;45.596;10.154;2023-09-08T00:06:48;100009.97;;;26.14;42.35
80410;BME280;69746;45.596;10.154;2023-09-08T00:09:16;100014.75;;;26.14;42.73
80410;BME280;69746;45.596;10.154;2023-09-08T00:11:42;100011.59;;;26.15;42.42
80410;BME280;69746;45.596;10.154;2023-09-08T00:14:08;100003.56;;;26.14;42.79
80410;BME280;69746;45.596;10.154;2023-09-08T00:16:35;100016.03;;;26.16;42.48
80410;BME280;69746;45.596;10.154;2023-09-08T00:19:01;100018.53;;;26.18;42.85
80410;BME280;69746;45.596;10.154;2023-09-08T00:21:29;100011.78;;;26.19;42.55
80410;BME280;69746;45.596;10.154;2023-09-08T00:23:55;100013.44;;;26.20;42.71
80410;BME280;69746;45.596;10.154;2023-09-08T00:26:22;100001.09;;;26.21;43.03
80410;BME280;69746;45.596;10.154;2023-09-08T00:28:48;99999.44;;;26.20;42.48
80410;BME280;69746;45.596;10.154;2023-09-08T00:31:14;100000.25;;;26.21;42.42
80410;BME280;69746;45.596;10.154;2023-09-08T00:33:40;100001.41;;;26.20;42.53
80410;BME280;69746;45.596;10.154;2023-09-08T00:36:10;99993.03;;;26.20;42.53
80410;BME280;69746;45.596;10.154;2023-09-08T00:38:36;99997.47;;;26.21;43.03
80410;BME280;69746;45.596;10.154;2023-09-08T00:41:05;99997.47;;;26.21;42.85
80410;BME280;69746;45.596;10.154;2023-09-08T00:43:31;99992.22;;;26.19;42.55
80410;BME280;69746;45.596;10.154;2023-09-08T00:45:57;99995.50;;;26.21;42.86
80410;BME280;69746;45.596;10.154;2023-09-08T00:48:25;99987.09;;;26.21;42.43
80410;BME280;69746;45.596;10.154;2023-09-08T00:50:51;99991.88;;;26.21;42.43
80410;BME280;69746;45.596;10.154;2023-09-08T00:53:18;99979.38;;;26.18;42.52
80410;BME280;69746;45.596;10.154;2023-09-08T00:55:44;99983.81;;;26.19;42.88
80410;BME280;69746;45.596;10.154;2023-09-08T00:58:11;99985.81;;;26.19;42.85
80410;BME280;69746;45.596;10.154;2023-09-08T01:00:37;99984.66;;;26.20;43.01
80410;BME280;69746;45.596;10.154;2023-09-08T01:03:03;99981.84;;;26.20;43.00
80410;BME280;69746;45.596;10.154;2023-09-08T01:05:29;99992.22;;;26.19;42.54
80410;BME280;69746;45.596;10.154;2023-09-08T01:07:57;99976.91;;;26.16;42.71
80410;BME280;69746;45.596;10.154;2023-09-08T01:10:24;99988.59;;;26.19;42.49
80410;BME280;69746;45.596;10.154;2023-09-08T01:12:50;99989.41;;;26.19;42.75
80410;BME280;69746;45.596;10.154;2023-09-08T01:15:16;99978.72;;;26.21;42.67
80410;BME280;69746;45.596;10.154;2023-09-08T01:17:42;99984.31;;;26.21;42.95
80410;BME280;69746;45.596;10.154;2023-09-08T01:20:20;99978.72;;;26.21;42.67
80410;BME280;69746;45.596;10.154;2023-09-08T01:23:11;99983.47;;;26.21;42.79
80410;BME280;69746;45.596;10.154;2023-09-08T01:26:04;99977.91;;;26.21;42.40
80410;BME280;69746;45.596;10.154;2023-09-08T01:28:32;99966.72;;;26.21;42.92
80410;BME280;69746;45.596;10.154;2023-09-08T01:31:00;99977.91;;;26.21;42.89
80410;BME280;69746;45.596;10.154;2023-09-08T01:33:28;99977.91;;;26.21;42.77
80410;BME280;69746;45.596;10.154;2023-09-08T01:35:57;99977.06;;;26.20;42.46
80410;BME280;69746;45.596;10.154;2023-09-08T01:38:25;99969.31;;;26.17;42.26
80410;BME280;69746;45.596;10.154;2023-09-08T01:40:51;99973.78;;;26.18;42.42
80410;BME280;69746;45.596;10.154;2023-09-08T01:43:17;99975.44;;;26.19;42.52
80410;BME280;69746;45.596;10.154;2023-09-08T01:45:42;99967.03;;;26.19;42.75
80410;BME280;69746;45.596;10.154;2023-09-08T01:48:10;99969.03;;;26.19;42.33
80410;BME280;69746;45.596;10.154;2023-09-08T01:50:36;99967.03;;;26.19;42.52
80410;BME280;69746;45.596;10.154;2023-09-08T01:53:05;99964.59;;;26.17;42.29
80410;BME280;69746;45.596;10.154;2023-09-08T01:55:30;99957.84;;;26.19;42.34
80410;BME280;69746;45.596;10.154;2023-09-08T01:57:56;99953.06;;;26.19;42.43
80410;BME280;69746;45.596;10.154;2023-09-08T02:00:22;99951.72;;;26.16;42.28
80410;BME280;69746;45.596;10.154;2023-09-08T02:02:48;99953.72;;;26.16;41.93
80410;BME280;69746;45.596;10.154;2023-09-08T02:05:14;99952.88;;;26.15;41.64
80410;BME280;69746;45.596;10.154;2023-09-08T02:07:40;99951.25;;;26.14;41.91
80410;BME280;69746;45.596;10.154;2023-09-08T02:10:06;99946.00;;;26.13;41.88
80410;BME280;69746;45.596;10.154;2023-09-08T02:12:32;99952.75;;;26.12;41.85
80410;BME280;69746;45.596;10.154;2023-09-08T02:14:57;99955.53;;;26.12;41.71
80410;BME280;69746;45.596;10.154;2023-09-08T02:17:23;99950.78;;;26.12;41.88
80410;BME280;69746;45.596;10.154;2023-09-08T02:19:49;99944.34;;;26.12;42.18
80410;BME280;69746;45.596;10.154;2023-09-08T02:22:15;99949.94;;;26.12;41.72
80410;BME280;69746;45.596;10.154;2023-09-08T02:24:41;99953.91;;;26.11;41.34
80410;BME280;69746;45.596;10.154;2023-09-08T02:27:07;99947.00;;;26.08;41.32
80410;BME280;69746;45.596;10.154;2023-09-08T02:29:33;99943.72;;;26.06;41.13
80410;BME280;69746;45.596;10.154;2023-09-08T02:31:59;99953.28;;;26.05;41.56
80410;BME280;69746;45.596;10.154;2023-09-08T02:34:24;99948.50;;;26.06;41.75
80410;BME280;69746;45.596;10.154;2023-09-08T02:36:50;99941.75;;;26.07;41.50
80410;BME280;69746;45.596;10.154;2023-09-08T02:39:16;99957.38;;;26.08;41.57
80410;BME280;69746;45.596;10.154;2023-09-08T02:41:42;99946.53;;;26.06;41.78
80410;BME280;69746;45.596;10.154;2023-09-08T02:44:08;99937.47;;;26.09;41.72
80410;BME280;69746;45.596;10.154;2023-09-08T02:46:33;99942.25;;;26.09;41.55
80410;BME280;69746;45.596;10.154;2023-09-08T02:48:59;99945.03;;;26.09;41.69
80410;BME280;69746;45.596;10.154;2023-09-08T02:51:27;99950.28;;;26.10;41.50
80410;BME280;69746;45.596;10.154;2023-09-08T02:53:52;99944.69;;;26.10;41.45
80410;BME280;69746;45.596;10.154;2023-09-08T02:56:18;99947.84;;;26.09;41.41
80410;BME280;69746;45.596;10.154;2023-09-08T02:58:44;99947.84;;;26.09;40.96
80410;BME280;69746;45.596;10.154;2023-09-08T03:01:11;99945.72;;;26.06;40.91
80410;BME280;69746;45.596;10.154;2023-09-08T03:03:40;99944.88;;;26.05;41.13
80410;BME280;69746;45.596;10.154;2023-09-08T03:06:06;99951.63;;;26.04;41.41
80410;BME280;69746;45.596;10.154;2023-09-08T03:08:32;99936.50;;;26.05;41.15
80410;BME280;69746;45.596;10.154;2023-09-08T03:10:59;99945.19;;;26.04;40.67
80410;BME280;69746;45.596;10.154;2023-09-08T03:13:25;99945.53;;;26.02;41.14
80410;BME280;69746;45.596;10.154;2023-09-08T03:15:52;99941.91;;;26.02;41.25
80410;BME280;69746;45.596;10.154;2023-09-08T03:18:18;99943.91;;;26.01;41.01
80410;BME280;69746;45.596;10.154;2023-09-08T03:20:48;99942.75;;;26.02;41.26
80410;BME280;69746;45.596;10.154;2023-09-08T03:23:15;99934.88;;;26.04;41.11
80410;BME280;69746;45.596;10.154;2023-09-08T03:25:41;99932.06;;;26.04;41.27
80410;BME280;69746;45.596;10.154;2023-09-08T03:28:07;99937.16;;;26.02;41.44
80410;BME280;69746;45.596;10.154;2023-09-08T03:30:33;99937.16;;;26.02;40.99
80410;BME280;69746;45.596;10.154;2023-09-08T03:32:59;99933.19;;;26.03;41.33
80410;BME280;69746;45.596;10.154;2023-09-08T03:35:25;99935.50;;;26.01;40.91
80410;BME280;69746;45.596;10.154;2023-09-08T03:37:51;99932.72;;;26.01;41.01
80410;BME280;69746;45.596;10.154;2023-09-08T03:40:17;99929.59;;;26.03;41.34
80410;BME280;69746;45.596;10.154;2023-09-08T03:42:42;99928.41;;;26.04;41.54
80410;BME280;69746;45.596;10.154;2023-09-08T03:45:08;99927.59;;;26.03;41.47
80410;BME280;69746;45.596;10.154;2023-09-08T03:47:35;99929.28;;;26.04;41.49
80410;BME280;69746;45.596;10.154;2023-09-08T03:50:01;99928.41;;;26.04;40.85
80410;BME280;69746;45.596;10.154;2023-09-08T03:52:26;99925.97;;;26.02;40.90
80410;BME280;69746;45.596;10.154;2023-09-08T03:54:52;99926.31;;;26.01;41.21
80410;BME280;69746;45.596;10.154;2023-09-08T03:57:18;99933.88;;;26.00;41.56
80410;BME280;69746;45.596;10.154;2023-09-08T03:59:44;99940.28;;;26.01;41.42
80410;BME280;69746;45.596;10.154;2023-09-08T04:02:10;99919.41;;;25.98;41.09
80410;BME280;69746;45.596;10.154;2023-09-08T04:04:36;99935.03;;;25.99;41.36
80410;BME280;69746;45.596;10.154;2023-09-08T04:07:04;99919.91;;;26.00;41.40
80410;BME280;69746;45.596;10.154;2023-09-08T04:09:30;99928.75;;;26.02;41.14
80410;BME280;69746;45.596;10.154;2023-09-08T04:11:57;99931.06;;;26.00;41.15
80410;BME280;69746;45.596;10.154;2023-09-08T04:14:23;99925.47;;;26.00;41.34
80410;BME280;69746;45.596;10.154;2023-09-08T04:16:54;99921.88;;;26.00;41.56
80410;BME280;69746;45.596;10.154;2023-09-08T04:19:19;99928.28;;;26.00;41.62
80410;BME280;69746;45.596;10.154;2023-09-08T04:21:45;99921.88;;;26.00;41.44
80410;BME280;69746;45.596;10.154;2023-09-08T04:24:11;99933.88;;;26.00;41.38
80410;BME280;69746;45.596;10.154;2023-09-08T04:26:40;99925.47;;;26.00;41.49
80410;BME280;69746;45.596;10.154;2023-09-08T04:29:06;99930.25;;;26.00;41.39
80410;BME280;69746;45.596;10.154;2023-09-08T04:31:31;99921.88;;;26.00;41.67
80410;BME280;69746;45.596;10.154;2023-09-08T04:33:57;99923.38;;;25.97;41.17
80410;BME280;69746;45.596;10.154;2023-09-08T04:36:23;99930.13;;;25.96;41.42
80410;BME280;69746;45.596;10.154;2023-09-08T04:38:49;99926.84;;;25.94;41.21
80410;BME280;69746;45.596;10.154;2023-09-08T04:41:15;99932.44;;;25.94;41.13
80410;BME280;69746;45.596;10.154;2023-09-08T04:43:41;99932.75;;;25.93;41.57
80410;BME280;69746;45.596;10.154;2023-09-08T04:46:07;99936.72;;;25.92;41.48
80410;BME280;69746;45.596;10.154;2023-09-08T04:48:34;99937.84;;;25.91;41.38
80410;BME280;69746;45.596;10.154;2023-09-08T04:51:00;99944.59;;;25.90;41.37
80410;BME280;69746;45.596;10.154;2023-09-08T04:53:26;99936.53;;;25.88;41.57
80410;BME280;69746;45.596;10.154;2023-09-08T04:55:55;99939.66;;;25.86;41.61
80410;BME280;69746;45.596;10.154;2023-09-08T04:58:20;99945.59;;;25.85;41.58
80410;BME280;69746;45.596;10.154;2023-09-08T05:00:47;99943.97;;;25.84;41.65
80410;BME280;69746;45.596;10.154;2023-09-08T05:03:13;99950.38;;;25.84;41.65
80410;BME280;69746;45.596;10.154;2023-09-08T05:05:38;99945.44;;;25.81;41.89
80410;BME280;69746;45.596;10.154;2023-09-08T05:08:04;99950.69;;;25.83;41.87
80410;BME280;69746;45.596;10.154;2023-09-08T05:10:31;99953.16;;;25.84;41.91
80410;BME280;69746;45.596;10.154;2023-09-08T05:12:57;99954.78;;;25.85;42.24
80410;BME280;69746;45.596;10.154;2023-09-08T05:15:23;99951.19;;;25.85;41.95
80410;BME280;69746;45.596;10.154;2023-09-08T05:17:51;99957.25;;;25.87;42.12
80410;BME280;69746;45.596;10.154;2023-09-08T05:20:17;99951.66;;;25.87;42.22
80410;BME280;69746;45.596;10.154;2023-09-08T05:22:43;99956.09;;;25.88;41.97
80410;BME280;69746;45.596;10.154;2023-09-08T05:25:08;99961.34;;;25.90;42.32
80410;BME280;69746;45.596;10.154;2023-09-08T05:27:34;99961.88;;;25.92;42.01
80410;BME280;69746;45.596;10.154;2023-09-08T05:30:00;99967.47;;;25.92;42.28
80410;BME280;69746;45.596;10.154;2023-09-08T05:32:26;99967.13;;;25.93;41.91
80410;BME280;69746;45.596;10.154;2023-09-08T05:34:52;99960.72;;;25.93;42.27
80410;BME280;69746;45.596;10.154;2023-09-08T05:37:18;99958.22;;;25.91;42.01
80410;BME280;69746;45.596;10.154;2023-09-08T05:39:44;99964.31;;;25.93;41.99
80410;BME280;69746;45.596;10.154;2023-09-08T05:42:10;99971.56;;;25.94;42.40
80410;BME280;69746;45.596;10.154;2023-09-08T05:44:36;99968.75;;;25.94;42.24
80410;BME280;69746;45.596;10.154;2023-09-08T05:47:02;99966.31;;;25.93;42.06
80410;BME280;69746;45.596;10.154;2023-09-08T05:49:30;99972.38;;;25.95;42.06
80410;BME280;69746;45.596;10.154;2023-09-08T05:51:56;99963.16;;;25.94;42.09
80410;BME280;69746;45.596;10.154;2023-09-08T05:54:22;99972.38;;;25.95;42.02
80410;BME280;69746;45.596;10.154;2023-09-08T05:56:48;99982.41;;;25.96;42.18
80410;BME280;69746;45.596;10.154;2023-09-08T05:59:14;99975.66;;;25.97;42.07
80410;BME280;69746;45.596;10.154;2023-09-08T06:01:39;99970.88;;;25.97;42.35
80410;BME280;69746;45.596;10.154;2023-09-08T06:04:06;99977.28;;;25.98;42.17
80410;BME280;69746;45.596;10.154;2023-09-08T06:06:32;99980.09;;;25.98;42.21
80410;BME280;69746;45.596;10.154;2023-09-08T06:09:01;99983.38;;;26.00;42.36
80410;BME280;69746;45.596;10.154;2023-09-08T06:11:28;99972.19;;;26.00;42.63
80410;BME280;69746;45.596;10.154;2023-09-08T06:13:54;99973.00;;;26.00;42.72
80410;BME280;69746;45.596;10.154;2023-09-08T06:16:25;99977.78;;;26.00;42.59
80410;BME280;69746;45.596;10.154;2023-09-08T06:18:51;99976.63;;;26.01;42.68
80410;BME280;69746;45.596;10.154;2023-09-08T06:21:17;99981.06;;;26.02;42.47
80410;BME280;69746;45.596;10.154;2023-09-08T06:23:43;99975.47;;;26.02;42.32
80410;BME280;69746;45.596;10.154;2023-09-08T06:26:09;99977.44;;;26.01;42.74
80410;BME280;69746;45.596;10.154;2023-09-08T06:28:35;99980.72;;;26.03;42.45
80410;BME280;69746;45.596;10.154;2023-09-08T06:31:01;99983.84;;;26.02;42.50
80410;BME280;69746;45.596;10.154;2023-09-08T06:33:27;99989.44;;;26.02;42.92
80410;BME280;69746;45.596;10.154;2023-09-08T06:35:52;99984.66;;;26.02;42.93
80410;BME280;69746;45.596;10.154;2023-09-08T06:38:19;99987.13;;;26.04;42.75
80410;BME280;69746;45.596;10.154;2023-09-08T06:40:45;99990.44;;;26.06;42.93
80410;BME280;69746;45.596;10.154;2023-09-08T06:43:11;99992.72;;;26.04;42.71
80410;BME280;69746;45.596;10.154;2023-09-08T06:45:39;99987.66;;;26.06;42.59
80410;BME280;69746;45.596;10.154;2023-09-08T06:48:05;99993.25;;;26.06;42.49
80410;BME280;69746;45.596;10.154;2023-09-08T06:50:32;99989.28;;;26.07;42.78
80410;BME280;69746;45.596;10.154;2023-09-08T06:53:01;99987.31;;;26.07;42.60
80410;BME280;69746;45.596;10.154;2023-09-08T06:55:26;99986.16;;;26.08;42.58
80410;BME280;69746;45.596;10.154;2023-09-08T06:57:52;99999.31;;;26.08;42.97
80410;BME280;69746;45.596;10.154;2023-09-08T07:00:18;99992.56;;;26.09;42.96
80410;BME280;69746;45.596;10.154;2023-09-08T07:02:48;99995.03;;;26.10;42.95
80410;BME280;69746;45.596;10.154;2023-09-08T07:05:17;99995.03;;;26.10;42.85
80410;BME280;69746;45.596;10.154;2023-09-08T07:07:49;99988.28;;;26.11;42.88
80410;BME280;69746;45.596;10.154;2023-09-08T07:10:16;99995.03;;;26.10;42.83
80410;BME280;69746;45.596;10.154;2023-09-08T07:12:45;99991.88;;;26.12;43.00
80410;BME280;69746;45.596;10.154;2023-09-08T07:15:11;99990.72;;;26.13;42.54
80410;BME280;69746;45.596;10.154;2023-09-08T07:17:37;99995.16;;;26.14;42.92
80410;BME280;69746;45.596;10.154;2023-09-08T07:20:03;99992.38;;;26.14;42.61
80410;BME280;69746;45.596;10.154;2023-09-08T07:22:30;99989.25;;;26.15;42.94
80410;BME280;69746;45.596;10.154;2023-09-08T07:24:56;99989.25;;;26.15;42.61
80410;BME280;69746;45.596;10.154;2023-09-08T07:27:22;99996.47;;;26.16;42.62
80410;BME280;69746;45.596;10.154;2023-09-08T07:29:47;99983.31;;;26.17;42.91
80410;BME280;69746;45.596;10.154;2023-09-08T07:32:16;99990.56;;;26.18;42.51
80410;BME280;69746;45.596;10.154;2023-09-08T07:34:42;99984.97;;;26.18;43.00
80410;BME280;69746;45.596;10.154;2023-09-08T07:37:08;99984.16;;;26.17;42.86
80410;BME280;69746;45.596;10.154;2023-09-08T07:39:34;99984.97;;;26.18;43.00
80410;BME280;69746;45.596;10.154;2023-09-08T07:42:01;99988.25;;;26.20;42.69
80410;BME280;69746;45.596;10.154;2023-09-08T07:44:27;99977.91;;;26.21;42.82
80410;BME280;69746;45.596;10.154;2023-09-08T07:46:54;99985.94;;;26.22;43.02
80410;BME280;69746;45.596;10.154;2023-09-08T07:49:23;99985.59;;;26.24;42.68
80410;BME280;69746;45.596;10.154;2023-09-08T07:51:52;99984.44;;;26.25;42.75
80410;BME280;69746;45.596;10.154;2023-09-08T07:54:18;99984.44;;;26.25;42.77
80410;BME280;69746;45.596;10.154;2023-09-08T07:56:44;99988.88;;;26.26;43.06
80410;BME280;69746;45.596;10.154;2023-09-08T07:59:10;99981.31;;;26.26;43.00
80410;BME280;69746;45.596;10.154;2023-09-08T08:01:36;99983.78;;;26.28;42.91
80410;BME280;69746;45.596;10.154;2023-09-08T08:04:03;99988.22;;;26.29;42.91
80410;BME280;69746;45.596;10.154;2023-09-08T08:06:29;99987.06;;;26.30;42.61
80410;BME280;69746;45.596;10.154;2023-09-08T08:08:56;99978.66;;;26.30;42.64
80410;BME280;69746;45.596;10.154;2023-09-08T08:11:24;99973.88;;;26.30;42.89
80410;BME280;69746;45.596;10.154;2023-09-08T08:13:51;99983.13;;;26.31;42.95
80410;BME280;69746;45.596;10.154;2023-09-08T08:16:17;99985.59;;;26.32;42.78
80410;BME280;69746;45.596;10.154;2023-09-08T08:18:43;99985.25;;;26.34;42.79
80410;BME280;69746;45.596;10.154;2023-09-08T08:21:09;99986.41;;;26.33;42.71
80410;BME280;69746;45.596;10.154;2023-09-08T08:23:35;99988.03;;;26.34;42.96
80410;BME280;69746;45.596;10.154;2023-09-08T08:26:04;99981.28;;;26.35;42.60
80410;BME280;69746;45.596;10.154;2023-09-08T08:28:30;99984.91;;;26.35;42.63
80410;BME280;69746;45.596;10.154;2023-09-08T08:30:59;99981.81;;;26.37;42.68
80410;BME280;69746;45.596;10.154;2023-09-08T08:33:25;99977.84;;;26.38;42.97
80410;BME280;69746;45.596;10.154;2023-09-08T08:36:00;99979.50;;;26.39;42.89
80410;BME280;69746;45.596;10.154;2023-09-08T08:38:26;99972.25;;;26.38;43.08
80410;BME280;69746;45.596;10.154;2023-09-08T08:40:52;99977.50;;;26.39;42.95
80410;BME280;69746;45.596;10.154;2023-09-08T08:43:19;99974.38;;;26.41;43.00
80410;BME280;69746;45.596;10.154;2023-09-08T08:45:46;99972.41;;;26.41;42.99
80410;BME280;69746;45.596;10.154;2023-09-08T08:48:18;99969.59;;;26.41;43.09
80410;BME280;69746;45.596;10.154;2023-09-08T08:50:47;99964.81;;;26.42;42.95
80410;BME280;69746;45.596;10.154;2023-09-08T08:53:13;99964.81;;;26.42;42.99
80410;BME280;69746;45.596;10.154;2023-09-08T08:55:40;99965.63;;;26.42;42.50
80410;BME280;69746;45.596;10.154;2023-09-08T08:58:09;99965.34;;;26.44;42.89
80410;BME280;69746;45.596;10.154;2023-09-08T09:00:35;99959.75;;;26.44;42.60
80410;BME280;69746;45.596;10.154;2023-09-08T09:03:05;99962.53;;;26.44;42.79
80410;BME280;69746;45.596;10.154;2023-09-08T09:05:32;99967.78;;;26.45;42.99
80410;BME280;69746;45.596;10.154;2023-09-08T09:08:02;99964.16;;;26.45;42.67
80410;BME280;69746;45.596;10.154;2023-09-08T09:10:31;99963.84;;;26.47;42.50
80410;BME280;69746;45.596;10.154;2023-09-08T09:12:57;99961.84;;;26.47;42.73
80410;BME280;69746;45.596;10.154;2023-09-08T09:15:30;99962.66;;;26.48;42.11
80410;BME280;69746;45.596;10.154;2023-09-08T09:18:08;99961.16;;;26.50;42.39
80410;BME280;69746;45.596;10.154;2023-09-08T09:20:37;99962.34;;;26.49;42.76
80410;BME280;69746;45.596;10.154;2023-09-08T09:23:03;99963.97;;;26.50;42.47
80410;BME280;69746;45.596;10.154;2023-09-08T09:25:31;99955.56;;;26.50;42.75
80410;BME280;69746;45.596;10.154;2023-09-08T09:27:57;99960.00;;;26.51;42.35
80410;BME280;69746;45.596;10.154;2023-09-08T09:30:24;99952.78;;;26.50;42.42
80410;BME280;69746;45.596;10.154;2023-09-08T09:33:04;99955.25;;;26.52;42.54
80410;BME280;69746;45.596;10.154;2023-09-08T09:35:46;99945.69;;;26.53;42.01
80410;BME280;69746;45.596;10.154;2023-09-08T09:38:12;99946.84;;;26.52;42.28
80410;BME280;69746;45.596;10.154;2023-09-08T09:40:39;99946.16;;;26.55;41.75
80410;BME280;69746;45.596;10.154;2023-09-08T09:43:06;99948.97;;;26.55;41.59
80410;BME280;69746;45.596;10.154;2023-09-08T09:45:36;99945.34;;;26.54;42.07
80410;BME280;69746;45.596;10.154;2023-09-08T09:48:06;99938.59;;;26.55;42.18
80410;BME280;69746;45.596;10.154;2023-09-08T09:50:35;99943.03;;;26.56;41.93
80410;BME280;69746;45.596;10.154;2023-09-08T09:53:08;99943.03;;;26.56;42.22
80410;BME280;69746;45.596;10.154;2023-09-08T09:55:36;99943.03;;;26.56;42.32
80410;BME280;69746;45.596;10.154;2023-09-08T09:58:08;99944.69;;;26.57;41.99
80410;BME280;69746;45.596;10.154;2023-09-08T10:00:39;99946.34;;;26.58;42.03
80410;BME280;69746;45.596;10.154;2023-09-08T10:03:07;99942.38;;;26.59;41.86
80410;BME280;69746;45.596;10.154;2023-09-08T10:05:34;99933.16;;;26.59;41.90
80410;BME280;69746;45.596;10.154;2023-09-08T10:08:00;99930.03;;;26.60;41.67
80410;BME280;69746;45.596;10.154;2023-09-08T10:10:27;99925.25;;;26.61;41.79
80410;BME280;69746;45.596;10.154;2023-09-08T10:13:02;99925.25;;;26.61;41.74
80410;BME280;69746;45.596;10.154;2023-09-08T10:15:30;99931.66;;;26.61;41.91
80410;BME280;69746;45.596;10.154;2023-09-08T10:17:57;99926.06;;;26.61;42.02
80410;BME280;69746;45.596;10.154;2023-09-08T10:20:28;99921.28;;;26.62;42.00
80410;BME280;69746;45.596;10.154;2023-09-08T10:23:31;99919.78;;;26.64;41.72
80410;BME280;69746;45.596;10.154;2023-09-08T10:26:01;99917.31;;;26.63;41.75
80410;BME280;69746;45.596;10.154;2023-09-08T10:28:30;99916.50;;;26.62;42.05
80410;BME280;69746;45.596;10.154;2023-09-08T10:30:58;99924.56;;;26.64;42.01
80410;BME280;69746;45.596;10.154;2023-09-08T10:33:25;99915.00;;;26.65;41.95
80410;BME280;69746;45.596;10.154;2023-09-08T10:35:59;99925.03;;;26.66;41.77
80410;BME280;69746;45.596;10.154;2023-09-08T10:38:28;99914.19;;;26.64;41.82
80410;BME280;69746;45.596;10.154;2023-09-08T10:43:45;99907.44;;;26.65;41.75
80410;BME280;69746;45.596;10.154;2023-09-08T10:46:22;99892.47;;;26.61;42.04
80410;BME280;69746;45.596;10.154;2023-09-08T10:48:49;99901.47;;;26.67;42.06
80410;BME280;69746;45.596;10.154;2023-09-08T10:51:17;99895.53;;;26.68;41.81
80410;BME280;69746;45.596;10.154;2023-09-08T10:53:46;99889.94;;;26.68;41.96
80410;BME280;69746;45.596;10.154;2023-09-08T10:56:13;99888.81;;;26.69;41.62
80410;BME280;69746;45.596;10.154;2023-09-08T10:58:40;99890.44;;;26.70;41.74
80410;BME280;69746;45.596;10.154;2023-09-08T11:01:19;99892.09;;;26.71;41.94
80410;BME280;69746;45.596;10.154;2023-09-08T11:03:49;99894.88;;;26.71;41.67
80410;BME280;69746;45.596;10.154;2023-09-08T11:06:18;99900.50;;;26.71;41.50
80410;BME280;69746;45.596;10.154;2023-09-08T11:08:50;99899.31;;;26.72;41.64
80410;BME280;69746;45.596;10.154;2023-09-08T11:11:21;99893.38;;;26.74;41.60
80410;BME280;69746;45.596;10.154;2023-09-08T11:13:47;99897.34;;;26.73;41.61
80410;BME280;69746;45.596;10.154;2023-09-08T11:16:16;99892.91;;;26.72;41.48
80410;BME280;69746;45.596;10.154;2023-09-08T11:18:47;99892.22;;;26.75;41.85
80410;BME280;69746;45.596;10.154;2023-09-08T11:21:13;99886.97;;;26.73;41.86
80410;BME280;69746;45.596;10.154;2023-09-08T11:23:40;99895.03;;;26.75;41.68
80410;BME280;69746;45.596;10.154;2023-09-08T11:26:06;99891.06;;;26.76;41.94
80410;BME280;69746;45.596;10.154;2023-09-08T11:28:37;99892.69;;;26.77;41.82
80410;BME280;69746;45.596;10.154;2023-09-08T11:31:04;99901.91;;;26.78;41.50
80410;BME280;69746;45.596;10.154;2023-09-08T11:33:34;99891.53;;;26.78;41.40
80410;BME280;69746;45.596;10.154;2023-09-08T11:36:13;99892.34;;;26.79;41.74
80410;BME280;69746;45.596;10.154;2023-09-08T11:38:43;99892.34;;;26.79;41.39
80410;BME280;69746;45.596;10.154;2023-09-08T11:41:10;99890.38;;;26.79;41.36
80410;BME280;69746;45.596;10.154;2023-09-08T11:43:39;99888.38;;;26.80;41.55
80410;BME280;69746;45.596;10.154;2023-09-08T11:46:06;99892.00;;;26.80;41.19
80410;BME280;69746;45.596;10.154;2023-09-08T11:48:32;99884.44;;;26.81;41.31
80410;BME280;69746;45.596;10.154;2023-09-08T11:50:59;99890.03;;;26.81;41.23
80410;BME280;69746;45.596;10.154;2023-09-08T11:53:25;99888.03;;;26.81;41.57
80410;BME280;69746;45.596;10.154;2023-09-08T11:55:51;99888.88;;;26.82;41.34
80410;BME280;69746;45.596;10.154;2023-09-08T11:58:18;99884.94;;;26.83;41.55
80410;BME280;69746;45.596;10.154;2023-09-08T12:00:45;99887.72;;;26.83;41.58
80410;BME280;69746;45.596;10.154;2023-09-08T12:03:16;99882.13;;;26.83;41.11
80410;BME280;69746;45.596;10.154;2023-09-08T12:05:44;99860.88;;;26.82;41.43
80410;BME280;69746;45.596;10.154;2023-09-08T12:08:10;99876.53;;;26.83;41.46
80410;BME280;69746;45.596;10.154;2023-09-08T12:10:41;99874.22;;;26.85;41.38
80410;BME280;69746;45.596;10.154;2023-09-08T12:13:08;99872.56;;;26.84;41.59
80410;BME280;69746;45.596;10.154;2023-09-08T12:15:38;99865.00;;;26.84;41.66
80410;BME280;69746;45.596;10.154;2023-09-08T12:18:09;99858.22;;;26.85;41.41
80410;BME280;69746;45.596;10.154;2023-09-08T12:20:39;99861.84;;;26.86;41.44
80410;BME280;69746;45.596;10.154;2023-09-08T12:23:22;99857.88;;;26.87;41.58
80410;BME280;69746;45.596;10.154;2023-09-08T12:25:51;99861.84;;;26.86;41.31
80410;BME280;69746;45.596;10.154;2023-09-08T12:28:19;99855.09;;;26.87;41.48
80410;BME280;69746;45.596;10.154;2023-09-08T12:30:46;99845.88;;;26.86;41.18
80410;BME280;69746;45.596;10.154;2023-09-08T12:33:17;99852.28;;;26.87;41.39
80410;BME280;69746;45.596;10.154;2023-09-08T12:35:46;99846.69;;;26.87;41.23
80410;BME280;69746;45.596;10.154;2023-09-08T12:38:14;99844.59;;;26.84;41.37
80410;BME280;69746;45.596;10.154;2023-09-08T12:40:40;99845.06;;;26.86;41.75
80410;BME280;69746;45.596;10.154;2023-09-08T12:43:06;99836.31;;;26.87;41.53
80410;BME280;69746;45.596;10.154;2023-09-08T12:45:36;99834.34;;;26.88;41.24
80410;BME280;69746;45.596;10.154;2023-09-08T12:48:02;99826.75;;;26.88;41.55
80410;BME280;69746;45.596;10.154;2023-09-08T12:50:29;99830.38;;;26.89;41.47
80410;BME280;69746;45.596;10.154;2023-09-08T12:52:56;99823.59;;;26.90;41.49
80410;BME280;69746;45.596;10.154;2023-09-08T12:55:25;99825.25;;;26.91;41.55